createdAt,value
2023-04-20T00:01:49.833Z,16.60
2023-04-20T00:04:52.972Z,15.02
2023-04-20T00:07:55.389Z,15.65
2023-04-20T00:10:58.035Z,16.98
2023-04-20T00:14:00.502Z,16.90
2023-04-20T00:17:03.206Z,17.37
2023-04-20T00:20:06.525Z,15.93
2023-04-20T00:23:09.220Z,16.48
2023-04-20T00:26:13.640Z,16.95
2023-04-20T00:29:16.917Z,17.90
2023-04-20T00:32:19.409Z,17.23
2023-04-20T00:35:23.933Z,16.15
2023-04-20T00:38:27.903Z,18.05
2023-04-20T00:41:30.674Z,16.62
2023-04-20T00:44:35.357Z,18.20
2023-04-20T00:47:39.083Z,16.77
2023-04-20T00:50:41.765Z,16.85
2023-04-20T00:53:44.970Z,16.17
2023-04-20T00:56:47.645Z,16.77
2023-04-20T00:59:53.752Z,18.45
2023-04-20T01:02:57.719Z,16.57
2023-04-20T01:06:02.041Z,17.92
2023-04-20T01:09:04.506Z,17.50
2023-04-20T01:12:07.735Z,16.27
2023-04-20T01:15:10.699Z,16.20
2023-04-20T01:18:13.805Z,18.53
2023-04-20T01:21:18.717Z,20.00
2023-04-20T01:24:21.405Z,21.12
2023-04-20T01:27:23.796Z,16.67
2023-04-20T01:30:26.612Z,17.75
2023-04-20T01:33:29.012Z,18.40
2023-04-20T01:36:32.278Z,16.92
2023-04-20T01:39:40.302Z,17.15
2023-04-20T01:42:43.056Z,18.80
2023-04-20T01:45:45.768Z,18.85
2023-04-20T01:48:48.532Z,18.20
2023-04-20T01:51:50.847Z,18.58
2023-04-20T01:54:53.849Z,19.52
2023-04-20T01:57:56.210Z,20.50
2023-04-20T02:01:01.878Z,18.05
2023-04-20T02:04:04.803Z,18.33
2023-04-20T02:07:07.349Z,16.00
2023-04-20T02:10:13.386Z,16.52
2023-04-20T02:13:21.692Z,18.58
2023-04-20T02:16:24.987Z,18.08
2023-04-20T02:19:27.766Z,16.23
2023-04-20T02:22:30.051Z,17.05
2023-04-20T02:25:32.650Z,15.55
2023-04-20T02:28:34.990Z,16.37
2023-04-20T02:31:40.454Z,17.37
2023-04-20T02:34:42.816Z,17.23
2023-04-20T02:37:46.233Z,18.55
2023-04-20T02:40:48.543Z,17.00
2023-04-20T02:43:51.820Z,20.27
2023-04-20T02:46:54.445Z,15.80
2023-04-20T02:49:57.313Z,23.40
2023-04-20T02:52:59.937Z,19.80
2023-04-20T02:56:03.205Z,17.92
2023-04-20T02:59:06.765Z,17.52
2023-04-20T03:02:09.884Z,17.98
2023-04-20T03:05:13.369Z,17.27
2023-04-20T03:08:16.462Z,17.80
2023-04-20T03:11:20.625Z,18.30
2023-04-20T03:14:23.564Z,19.12
2023-04-20T03:17:25.971Z,19.85
2023-04-20T03:20:28.799Z,18.37
2023-04-20T03:23:31.192Z,17.70
2023-04-20T03:26:34.909Z,17.25
2023-04-20T03:29:39.084Z,21.15
2023-04-20T03:32:42.386Z,18.23
2023-04-20T03:35:44.921Z,20.73
2023-04-20T03:38:47.509Z,18.23
2023-04-20T03:41:49.890Z,17.60
2023-04-20T03:44:52.442Z,17.67
2023-04-20T03:47:54.810Z,16.87
2023-04-20T03:50:57.699Z,18.43
2023-04-20T03:54:00.378Z,17.85
2023-04-20T03:57:03.787Z,19.48
2023-04-20T04:00:06.778Z,22.33
2023-04-20T04:03:20.624Z,22.90
2023-04-20T04:06:23.459Z,19.90
2023-04-20T04:09:26.690Z,19.67
2023-04-20T04:12:29.321Z,19.92
2023-04-20T04:15:32.075Z,21.62
2023-04-20T04:18:35.295Z,18.62
2023-04-20T04:21:38.239Z,21.20
2023-04-20T04:24:41.762Z,19.58
2023-04-20T04:27:46.486Z,19.92
2023-04-20T04:30:49.419Z,22.30
2023-04-20T04:33:52.243Z,16.00
2023-04-20T04:36:57.960Z,15.73
2023-04-20T04:40:03.806Z,18.98
2023-04-20T04:43:10.190Z,33.17
2023-04-20T04:46:14.506Z,21.48
2023-04-20T04:49:17.605Z,16.73
2023-04-20T04:52:21.003Z,16.53
2023-04-20T04:55:23.618Z,22.87
2023-04-20T04:58:26.107Z,19.37
2023-04-20T05:01:28.767Z,17.45
2023-04-20T05:04:31.231Z,18.75
2023-04-20T05:07:34.175Z,18.13
2023-04-20T05:10:36.548Z,17.83
2023-04-20T05:13:39.382Z,18.12
2023-04-20T05:16:41.775Z,19.60
2023-04-20T05:19:44.446Z,18.77
2023-04-20T05:22:47.012Z,26.67
2023-04-20T05:25:49.726Z,19.42
2023-04-20T05:28:52.063Z,21.20
2023-04-20T05:31:54.804Z,20.08
2023-04-20T05:34:58.313Z,19.85
2023-04-20T05:38:02.652Z,22.03
2023-04-20T05:41:05.022Z,21.85
2023-04-20T05:44:07.777Z,16.92
2023-04-20T05:47:10.117Z,20.65
2023-04-20T05:50:12.705Z,21.33
2023-04-20T05:53:14.997Z,19.13
2023-04-20T05:56:18.561Z,21.58
2023-04-20T05:59:21.838Z,18.27
2023-04-20T06:02:24.723Z,15.95
2023-04-20T06:05:27.427Z,16.70
2023-04-20T06:08:29.769Z,15.20
2023-04-20T06:11:32.389Z,17.37
2023-04-20T06:14:34.753Z,17.10
2023-04-20T06:17:41.169Z,17.02
2023-04-20T06:20:44.392Z,16.12
2023-04-20T06:23:47.144Z,16.20
2023-04-20T06:26:49.472Z,12.68
2023-04-20T06:29:52.204Z,14.52
2023-04-20T06:32:54.648Z,18.95
2023-04-20T06:35:57.479Z,12.37
2023-04-20T06:38:59.754Z,15.50
2023-04-20T06:42:02.855Z,12.55
2023-04-20T06:45:08.550Z,11.02
2023-04-20T06:48:23.938Z,13.95
2023-04-20T06:51:33.476Z,26.30
2023-04-20T06:54:36.114Z,11.93
2023-04-20T06:57:43.726Z,13.32
2023-04-20T07:00:47.675Z,10.25
2023-04-20T07:03:50.556Z,14.63
2023-04-20T07:06:54.351Z,11.85
2023-04-20T07:09:56.953Z,15.10
2023-04-20T07:12:59.556Z,12.57
2023-04-20T07:16:02.730Z,10.23
2023-04-20T07:19:05.620Z,11.43
2023-04-20T07:22:08.002Z,12.45
2023-04-20T07:25:10.672Z,11.60
2023-04-20T07:28:13.031Z,11.57
2023-04-20T07:31:15.854Z,11.15
2023-04-20T07:34:18.479Z,17.45
2023-04-20T07:37:21.397Z,12.50
2023-04-20T07:40:23.830Z,10.07
2023-04-20T07:43:26.521Z,11.73
2023-04-20T07:46:29.128Z,14.87
2023-04-20T07:49:31.854Z,13.48
2023-04-20T07:52:34.541Z,12.98
2023-04-20T07:55:37.252Z,11.87
2023-04-20T07:58:40.791Z,10.95
2023-04-20T08:01:43.469Z,14.63
2023-04-20T08:04:46.600Z,16.77
2023-04-20T08:07:49.144Z,12.25
2023-04-20T08:10:51.791Z,10.20
2023-04-20T08:13:55.738Z,10.35
2023-04-20T08:16:59.784Z,11.45
2023-04-20T08:20:02.517Z,12.20
2023-04-20T08:23:05.242Z,11.40
2023-04-20T08:26:07.594Z,10.40
2023-04-20T08:29:10.840Z,9.68
2023-04-20T08:32:13.817Z,9.48
2023-04-20T08:35:16.624Z,9.75
2023-04-20T08:38:23.771Z,13.68
2023-04-20T08:41:33.557Z,10.00
2023-04-20T08:44:35.924Z,11.63
2023-04-20T08:47:39.321Z,10.00
2023-04-20T08:50:42.117Z,9.25
2023-04-20T08:53:44.982Z,13.13
2023-04-20T08:56:48.190Z,8.63
2023-04-20T08:59:50.903Z,9.82
2023-04-20T09:02:55.775Z,9.32
2023-04-20T09:05:58.989Z,10.35
2023-04-20T09:09:01.375Z,12.30
2023-04-20T09:12:07.133Z,11.43
2023-04-20T09:15:10.901Z,16.12
2023-04-20T09:18:14.945Z,15.65
2023-04-20T09:21:17.300Z,11.43
2023-04-20T09:24:21.965Z,10.50
2023-04-20T09:27:26.245Z,11.03
2023-04-20T09:30:43.707Z,13.68
2023-04-20T09:33:58.790Z,9.93
2023-04-20T09:37:01.555Z,10.60
2023-04-20T09:40:05.902Z,12.00
2023-04-20T09:43:19.382Z,12.63
2023-04-20T09:46:22.485Z,10.85
2023-04-20T09:49:26.280Z,9.98
2023-04-20T09:52:28.748Z,11.30
2023-04-20T09:55:34.449Z,12.15
2023-04-20T09:58:38.055Z,9.30
2023-04-20T10:01:40.959Z,13.10
2023-04-20T10:04:57.534Z,8.98
2023-04-20T10:08:01.216Z,9.10
2023-04-20T10:11:03.981Z,11.30
2023-04-20T10:14:20.731Z,11.57
2023-04-20T10:17:31.711Z,10.20
2023-04-20T10:20:34.178Z,8.82
2023-04-20T10:23:56.635Z,8.52
2023-04-20T10:26:59.555Z,10.80
2023-04-20T10:30:10.786Z,12.80
2023-04-20T10:33:13.501Z,9.95
2023-04-20T10:36:24.217Z,9.40
2023-04-20T10:39:27.684Z,10.77
2023-04-20T10:42:41.913Z,10.05
2023-04-20T10:45:44.318Z,9.57
2023-04-20T10:49:04.923Z,7.12
2023-04-20T10:52:07.538Z,8.55
2023-04-20T10:55:21.424Z,10.32
2023-04-20T10:58:25.014Z,8.18
2023-04-20T11:01:32.810Z,7.73
2023-04-20T11:04:37.261Z,12.30
2023-04-20T11:07:53.680Z,7.68
2023-04-20T11:10:56.052Z,8.50
2023-04-20T11:14:12.270Z,7.72
2023-04-20T11:17:14.749Z,8.17
2023-04-20T11:20:18.604Z,8.10
2023-04-20T11:23:22.756Z,8.52
2023-04-20T11:26:37.799Z,11.07
2023-04-20T11:29:40.312Z,10.40
2023-04-20T11:32:43.328Z,7.43
2023-04-20T11:35:45.933Z,6.93
2023-04-20T11:38:49.421Z,8.23
2023-04-20T11:41:52.687Z,7.43
2023-04-20T11:44:56.306Z,6.82
2023-04-20T11:48:00.033Z,7.37
2023-04-20T11:51:03.294Z,7.40
2023-04-20T11:54:05.775Z,7.72
2023-04-20T11:57:08.657Z,6.65
2023-04-20T12:00:12.597Z,6.95
2023-04-20T12:03:15.870Z,6.27
2023-04-20T12:06:18.658Z,9.25
2023-04-20T12:09:21.565Z,7.30
2023-04-20T12:12:26.644Z,9.20
2023-04-20T12:15:30.933Z,6.10
2023-04-20T12:18:34.079Z,7.70
2023-04-20T12:21:36.548Z,10.55
2023-04-20T12:24:39.235Z,10.15
2023-04-20T12:27:41.610Z,9.00
2023-04-20T12:30:44.261Z,7.57
2023-04-20T12:33:46.796Z,7.57
2023-04-20T12:36:49.453Z,7.47
2023-04-20T12:39:51.986Z,6.97
2023-04-20T12:42:54.689Z,6.25
2023-04-20T12:45:57.063Z,6.55
2023-04-20T12:48:59.740Z,8.30
2023-04-20T12:52:02.263Z,7.72
2023-04-20T12:55:05.656Z,7.37
2023-04-20T12:58:08.047Z,5.95
2023-04-20T13:01:10.901Z,5.30
2023-04-20T13:04:16.131Z,6.60
2023-04-20T13:07:19.137Z,5.68
2023-04-20T13:10:21.453Z,7.90
2023-04-20T13:13:24.191Z,7.40
2023-04-20T13:16:26.932Z,13.23
2023-04-20T13:19:31.146Z,6.03
2023-04-20T13:22:34.655Z,6.10
2023-04-20T13:25:38.827Z,7.37
2023-04-20T13:28:41.620Z,8.13
2023-04-20T13:31:44.532Z,6.85
2023-04-20T13:34:47.224Z,9.63
2023-04-20T13:37:51.622Z,7.93
2023-04-20T13:40:53.960Z,5.70
2023-04-20T13:43:58.126Z,6.57
2023-04-20T13:47:00.561Z,6.93
2023-04-20T13:50:03.682Z,6.83
2023-04-20T13:53:06.140Z,6.40
2023-04-20T13:56:10.792Z,6.62
2023-04-20T13:59:13.153Z,8.43
2023-04-20T14:02:16.136Z,5.78
2023-04-20T14:05:18.910Z,7.13
2023-04-20T14:08:23.358Z,7.57
2023-04-20T14:11:26.426Z,12.35
2023-04-20T14:14:28.858Z,7.47
2023-04-20T14:17:31.731Z,7.75
2023-04-20T14:20:34.995Z,5.40
2023-04-20T14:23:37.634Z,7.43
2023-04-20T14:26:41.086Z,6.75
2023-04-20T14:29:43.688Z,6.90
2023-04-20T14:33:00.196Z,5.80
2023-04-20T14:36:03.428Z,7.47
2023-04-20T14:39:05.736Z,5.40
2023-04-20T14:42:08.372Z,5.57
2023-04-20T14:45:11.611Z,8.07
2023-04-20T14:48:14.263Z,5.93
2023-04-20T14:51:17.476Z,6.20
2023-04-20T14:54:20.337Z,9.25
2023-04-20T14:57:23.074Z,6.75
2023-04-20T15:00:28.257Z,5.60
2023-04-20T15:03:31.082Z,7.12
2023-04-20T15:06:34.649Z,7.03
2023-04-20T15:09:37.051Z,5.80
2023-04-20T15:12:39.748Z,5.20
2023-04-20T15:18:52.047Z,10.05
2023-04-20T15:21:54.376Z,6.90
2023-04-20T15:24:57.064Z,9.52
2023-04-20T15:27:59.460Z,5.78
2023-04-20T15:31:02.153Z,6.78
2023-04-20T15:34:04.553Z,7.82
2023-04-20T15:37:07.210Z,6.67
2023-04-20T15:40:09.926Z,8.05
2023-04-20T15:43:12.558Z,7.22
2023-04-20T15:46:14.910Z,5.80
2023-04-20T15:49:20.631Z,7.20
2023-04-20T15:52:23.054Z,5.50
2023-04-20T15:55:25.759Z,5.45
2023-04-20T15:58:28.092Z,6.93
2023-04-20T16:01:30.906Z,6.05
2023-04-20T16:04:33.619Z,9.23
2023-04-20T16:07:36.085Z,6.97
2023-04-20T16:10:39.006Z,5.72
2023-04-20T16:13:41.366Z,5.97
2023-04-20T16:16:44.061Z,7.78
2023-04-20T16:19:46.527Z,6.57
2023-04-20T16:22:49.191Z,6.60
2023-04-20T16:25:51.590Z,7.10
2023-04-20T16:28:54.376Z,6.85
2023-04-20T16:31:56.724Z,7.87
2023-04-20T16:34:59.502Z,7.07
2023-04-20T16:38:01.899Z,6.43
2023-04-20T16:41:04.737Z,8.65
2023-04-20T16:44:07.060Z,5.95
2023-04-20T16:47:09.807Z,11.27
2023-04-20T16:50:14.333Z,6.28
2023-04-20T16:53:17.184Z,6.97
2023-04-20T16:56:19.571Z,7.00
2023-04-20T16:59:22.286Z,8.15
2023-04-20T17:02:25.805Z,8.45
2023-04-20T17:05:28.540Z,7.00
2023-04-20T17:08:31.076Z,9.13
2023-04-20T17:11:38.800Z,6.97
2023-04-20T17:14:42.293Z,7.43
2023-04-20T17:17:45.009Z,7.57
2023-04-20T17:20:48.274Z,6.35
2023-04-20T17:23:51.017Z,6.90
2023-04-20T17:26:54.037Z,6.47
2023-04-20T17:29:57.403Z,9.25
2023-04-20T17:33:00.762Z,8.93
2023-04-20T17:36:03.611Z,7.90
2023-04-20T17:39:06.355Z,6.73
2023-04-20T17:42:10.144Z,8.25
2023-04-20T17:45:12.513Z,12.13
2023-04-20T17:48:15.268Z,5.53
2023-04-20T17:51:17.762Z,7.28
2023-04-20T17:54:20.689Z,8.03
2023-04-20T17:57:23.367Z,9.95
2023-04-20T18:00:26.332Z,8.82
2023-04-20T18:03:30.014Z,6.78
2023-04-20T18:06:33.738Z,7.22
2023-04-20T18:09:36.406Z,7.80
2023-04-20T18:12:38.795Z,7.12
2023-04-20T18:15:41.617Z,8.65
2023-04-20T18:18:44.196Z,10.90
2023-04-20T18:21:46.907Z,8.82
2023-04-20T18:24:49.706Z,7.33
2023-04-20T18:27:52.456Z,9.32
2023-04-20T18:30:57.045Z,8.80
2023-04-20T18:34:01.102Z,9.45
2023-04-20T18:37:03.435Z,8.82
2023-04-20T18:40:07.238Z,12.00
2023-04-20T18:43:09.697Z,12.98
2023-04-20T18:46:12.511Z,9.55
2023-04-20T18:49:14.944Z,7.32
2023-04-20T18:52:19.333Z,10.07
2023-04-20T18:55:21.853Z,7.13
2023-04-20T18:58:24.809Z,8.93
2023-04-20T19:01:27.420Z,10.07
2023-04-20T19:04:30.262Z,14.07
2023-04-20T19:07:32.863Z,11.52
2023-04-20T19:10:36.398Z,9.30
2023-04-20T19:13:44.294Z,10.13
2023-04-20T19:16:47.180Z,7.87
2023-04-20T19:19:51.250Z,12.13
2023-04-20T19:22:53.908Z,10.18
2023-04-20T19:25:56.981Z,9.33
2023-04-20T19:29:00.180Z,10.95
2023-04-20T19:32:02.946Z,10.68
2023-04-20T19:35:05.768Z,10.38
2023-04-20T19:38:08.220Z,9.23
2023-04-20T19:41:10.887Z,9.10
2023-04-20T19:44:14.452Z,8.95
2023-04-20T19:47:17.394Z,10.98
2023-04-20T19:50:19.692Z,8.45
2023-04-20T19:53:22.566Z,9.55
2023-04-20T19:56:24.912Z,9.53
2023-04-20T19:59:28.581Z,7.97
2023-04-20T20:02:31.002Z,12.55
2023-04-20T20:05:34.547Z,7.72
2023-04-20T20:08:37.192Z,9.30
2023-04-20T20:11:42.396Z,10.30
2023-04-20T20:14:44.993Z,11.10
2023-04-20T20:17:47.809Z,12.98
2023-04-20T20:20:51.349Z,8.30
2023-04-20T20:23:54.031Z,9.32
2023-04-20T20:26:57.667Z,8.87
2023-04-20T20:30:00.304Z,11.57
2023-04-20T20:33:02.711Z,9.63
2023-04-20T20:36:08.762Z,9.13
2023-04-20T20:39:11.177Z,9.18
2023-04-20T20:42:15.713Z,10.33
2023-04-20T20:45:18.289Z,13.07
2023-04-20T20:48:21.149Z,9.30
2023-04-20T20:51:23.447Z,10.20
2023-04-20T20:54:26.032Z,11.25
2023-04-20T20:57:28.410Z,9.13
2023-04-20T21:00:31.737Z,8.57
2023-04-20T21:03:34.278Z,9.90
2023-04-20T21:06:37.036Z,9.40
2023-04-20T21:09:39.311Z,9.18
2023-04-20T21:12:41.973Z,9.37
2023-04-20T21:15:44.367Z,10.35
2023-04-20T21:18:47.079Z,10.13
2023-04-20T21:21:49.401Z,10.90
2023-04-20T21:24:52.072Z,11.07
2023-04-20T21:27:54.416Z,11.07
2023-04-20T21:30:56.999Z,9.57
2023-04-20T21:34:00.444Z,9.57
2023-04-20T21:37:05.854Z,7.07
2023-04-20T21:40:09.376Z,9.93
2023-04-20T21:43:12.285Z,10.13
2023-04-20T21:46:15.770Z,7.62
2023-04-20T21:49:18.782Z,8.88
2023-04-20T21:52:21.269Z,9.80
2023-04-20T21:55:23.884Z,7.75
2023-04-20T21:58:26.151Z,7.90
2023-04-20T22:01:31.613Z,9.80
2023-04-20T22:04:34.993Z,13.52
2023-04-20T22:07:38.607Z,9.52
2023-04-20T22:10:41.859Z,10.68
2023-04-20T22:13:45.326Z,9.37
2023-04-20T22:16:48.022Z,11.43
2023-04-20T22:19:50.424Z,8.43
2023-04-20T22:22:53.148Z,8.88
2023-04-20T22:25:55.732Z,9.48
2023-04-20T22:28:58.370Z,10.20
2023-04-20T22:32:00.824Z,8.10
2023-04-20T22:35:03.621Z,10.45
2023-04-20T22:38:05.940Z,12.20
2023-04-20T22:41:08.524Z,9.10
2023-04-20T22:44:10.828Z,7.73
2023-04-20T22:47:13.661Z,10.40
2023-04-20T22:50:16.335Z,8.82
2023-04-20T22:53:18.933Z,9.88
2023-04-20T22:56:21.256Z,11.48
2023-04-20T22:59:23.885Z,13.00
2023-04-20T23:02:27.020Z,10.23
2023-04-20T23:05:29.685Z,11.52
2023-04-20T23:08:33.519Z,9.82
2023-04-20T23:11:38.925Z,9.27
2023-04-20T23:14:43.794Z,12.93
2023-04-20T23:17:46.651Z,11.15
2023-04-20T23:20:49.030Z,9.02
2023-04-20T23:23:52.921Z,9.65
2023-04-20T23:26:55.478Z,11.15
2023-04-20T23:29:58.088Z,10.80
2023-04-20T23:33:00.464Z,14.10
2023-04-20T23:36:03.173Z,9.90
2023-04-20T23:39:05.804Z,9.25
2023-04-20T23:42:08.402Z,13.10
2023-04-20T23:45:11.265Z,10.97
2023-04-20T23:48:13.853Z,9.23
2023-04-20T23:51:16.161Z,10.15
2023-04-20T23:54:19.129Z,12.73
2023-04-20T23:57:21.481Z,11.27
